Time;durP1;ratioP1;P1;durP2;ratioP2;P2;SDS_P1;SDS_P2;PMS_P1;PMS_P2;Temp;Humidity;BMP_temperature;BMP_pressure;BME280_temperature;BME280_humidity;BME280_pressure;Samples;Min_cycle;Max_cycle;Signal;HPM_P1;HPM_P2
2022/04/03 00:02:36;;;;;;;3.55;1.40;;;;;;;17.34;52.47;96550.72;10391926;28;20478;-24
2022/04/03 00:07:37;;;;;;;3.83;1.73;;;;;;;17.31;52.33;96549.03;10372305;28;20053;-23
2022/04/03 00:12:37;;;;;;;2.42;1.63;;;;;;;17.32;53.62;96549.88;10383114;28;20049;-23
2022/04/03 00:17:38;;;;;;;2.92;1.67;;;;;;;17.32;51.43;96560.00;10392522;28;20034;-23
2022/04/03 00:22:38;;;;;;;1.88;1.70;;;;;;;17.29;52.32;96549.84;10393692;28;20060;-23
2022/04/03 00:27:39;;;;;;;2.95;1.80;;;;;;;17.32;51.50;96547.34;10398379;28;20025;-23
2022/04/03 00:32:40;;;;;;;1.53;1.43;;;;;;;17.31;52.78;96543.97;10394827;28;20409;-23
2022/04/03 00:37:40;;;;;;;5.65;1.67;;;;;;;17.32;53.73;96545.63;10393016;28;20296;-24
2022/04/03 00:42:41;;;;;;;2.57;1.93;;;;;;;17.31;53.60;96554.06;10395551;28;20044;-23
2022/04/03 00:47:42;;;;;;;3.25;1.75;;;;;;;17.34;51.99;96548.19;10397405;28;20035;-24
2022/04/03 00:52:42;;;;;;;3.65;1.80;;;;;;;17.31;52.89;96559.13;10399641;28;20037;-23
2022/04/03 00:57:44;;;;;;;1.63;1.53;;;;;;;17.27;51.86;96552.41;10395146;28;20037;-23
2022/04/03 01:02:44;;;;;;;5.15;1.73;;;;;;;17.27;52.08;96546.47;10402518;28;20034;-23
2022/04/03 01:07:44;;;;;;;2.23;1.60;;;;;;;17.31;51.52;96553.25;10392492;28;20030;-23
2022/04/03 01:12:45;;;;;;;2.93;1.63;;;;;;;17.30;52.01;96551.53;10387974;28;20376;-23
2022/04/03 01:17:46;;;;;;;2.47;1.43;;;;;;;17.32;51.38;96560.00;10387318;28;20375;-24
2022/04/03 01:22:46;;;;;;;3.33;2.00;;;;;;;17.31;51.93;96563.38;10388649;28;20296;-23
2022/04/03 01:27:47;;;;;;;2.57;1.87;;;;;;;17.30;51.26;96561.66;10388133;28;20544;-23
2022/04/03 01:32:47;;;;;;;2.33;1.80;;;;;;;17.29;51.76;96568.41;10392888;28;20520;-23
2022/04/03 01:37:47;;;;;;;2.33;1.53;;;;;;;17.31;53.66;96561.66;10379809;28;20095;-23
2022/04/03 01:42:50;;;;;;;2.13;1.50;;;;;;;17.30;53.42;96561.66;10383738;28;20054;-25
2022/04/03 01:47:51;;;;;;;2.42;2.08;;;;;;;17.28;52.51;96559.16;10386924;28;20033;-23
2022/04/03 01:52:52;;;;;;;2.05;1.40;;;;;;;17.28;51.79;96563.34;10396912;28;20133;-23
2022/04/03 01:57:53;;;;;;;2.88;1.27;;;;;;;17.28;51.36;96554.09;10390981;28;20116;-23
2022/04/03 02:02:54;;;;;;;4.30;2.45;;;;;;;17.28;51.27;96563.34;10382217;28;20030;-24
2022/04/03 02:07:54;;;;;;;2.22;1.50;;;;;;;17.28;51.81;96563.34;10390548;28;20021;-24
2022/04/03 02:12:54;;;;;;;3.03;1.23;;;;;;;17.27;51.99;96562.53;10381504;28;20038;-24
2022/04/03 02:17:55;;;;;;;2.20;1.58;;;;;;;17.25;51.17;96564.19;10386343;28;20021;-23
2022/04/03 02:23:01;;;;;;;1.92;1.70;;;;;;;17.25;51.44;96560.81;10383364;28;20030;-24
2022/04/03 02:28:01;;;;;;;1.70;1.23;;;;;;;17.27;51.39;96576.84;10383820;28;20029;-24
2022/04/03 02:33:02;;;;;;;2.30;1.33;;;;;;;17.27;52.61;96575.16;10390161;28;20086;-23
2022/04/03 02:38:02;;;;;;;1.60;1.30;;;;;;;17.29;53.79;96575.16;10373658;28;20398;-24
2022/04/03 02:43:03;;;;;;;2.83;1.13;;;;;;;17.29;53.38;96580.22;10379599;28;20268;-23
2022/04/03 02:48:04;;;;;;;1.38;1.20;;;;;;;17.26;51.90;96580.22;10384474;28;20284;-23
2022/04/03 02:53:04;;;;;;;1.95;1.75;;;;;;;17.23;51.66;96583.56;10389925;28;20452;-23
2022/04/03 02:58:05;;;;;;;2.08;1.40;;;;;;;17.25;51.30;96583.59;10387545;28;20049;-25
2022/04/03 03:03:07;;;;;;;2.38;1.63;;;;;;;17.26;51.20;96580.22;10382306;28;20037;-23
2022/04/03 03:08:07;;;;;;;1.63;1.30;;;;;;;17.25;50.90;96586.13;10380741;28;20470;-24
2022/04/03 03:13:08;;;;;;;3.05;1.52;;;;;;;17.26;51.74;96590.34;10360181;28;20026;-24
2022/04/03 03:18:09;;;;;;;1.98;1.30;;;;;;;17.19;51.14;96565.84;10382023;28;20056;-23
2022/04/03 03:23:09;;;;;;;1.20;1.10;;;;;;;17.23;51.27;96575.16;10390902;28;20033;-23
2022/04/03 03:28:09;;;;;;;2.50;1.23;;;;;;;17.23;51.57;96581.03;10391136;28;20036;-23
2022/04/03 03:33:10;;;;;;;2.93;1.40;;;;;;;17.25;52.75;96579.34;10389742;28;20064;-23
2022/04/03 03:38:10;;;;;;;2.40;1.73;;;;;;;17.29;53.21;96585.28;10373091;28;20048;-24
2022/04/03 03:43:11;;;;;;;1.80;1.17;;;;;;;17.29;51.65;96580.22;10380211;28;20025;-23
2022/04/03 03:48:12;;;;;;;1.15;0.85;;;;;;;17.27;51.15;96582.75;10384948;28;20029;-24
2022/04/03 03:53:12;;;;;;;2.63;1.17;;;;;;;17.27;50.83;96586.97;10388560;28;20564;-24
2022/04/03 03:58:12;;;;;;;2.37;1.20;;;;;;;17.31;51.13;96588.69;10397233;28;20042;-24
2022/04/03 04:03:13;;;;;;;1.50;1.30;;;;;;;17.28;51.21;96591.19;10394371;28;20105;-24
2022/04/03 04:08:13;;;;;;;3.22;1.20;;;;;;;17.24;50.80;96592.03;10392256;28;20034;-23
2022/04/03 04:13:14;;;;;;;2.93;1.63;;;;;;;17.28;51.42;96598.75;10396250;28;20038;-22
2022/04/03 04:18:14;;;;;;;1.75;1.27;;;;;;;17.28;50.92;96602.16;10393298;28;20078;-23
2022/04/03 04:23:14;;;;;;;2.57;1.50;;;;;;;17.27;50.99;96607.19;10384586;28;20378;-23
2022/04/03 04:28:15;;;;;;;1.40;1.30;;;;;;;17.27;50.85;96604.66;10399973;28;20021;-23
2022/04/03 04:33:15;;;;;;;1.80;1.13;;;;;;;17.28;51.57;96606.34;10394309;28;20036;-25
2022/04/03 04:38:17;;;;;;;1.37;1.27;;;;;;;17.28;53.20;96609.75;10381104;28;20046;-24
2022/04/03 04:43:17;;;;;;;5.70;1.60;;;;;;;17.28;52.42;96611.41;10384014;28;20368;-25
2022/04/03 04:48:17;;;;;;;2.30;1.13;;;;;;;17.27;51.39;96618.19;10384702;28;20042;-24
2022/04/03 04:53:18;;;;;;;1.30;1.20;;;;;;;17.27;51.04;96623.25;10395577;28;20030;-24
2022/04/03 04:58:18;;;;;;;2.77;1.20;;;;;;;17.25;50.98;96631.66;10392018;28;20048;-24
2022/04/03 05:03:18;;;;;;;1.67;1.20;;;;;;;17.27;51.11;96632.50;10395719;28;20033;-24
2022/04/03 05:08:19;;;;;;;1.37;1.00;;;;;;;17.14;51.11;96621.50;10392990;28;20018;-24
2022/04/03 05:13:25;;;;;;;2.67;1.35;;;;;;;17.20;51.15;96645.97;10394416;28;20283;-24
2022/04/03 05:18:25;;;;;;;3.20;1.13;;;;;;;17.24;50.85;96653.56;10391095;28;20405;-24
2022/04/03 05:23:25;;;;;;;1.50;1.00;;;;;;;17.20;51.07;96645.97;10390058;28;20125;-25
2022/04/03 05:28:28;;;;;;;1.00;0.90;;;;;;;17.28;50.83;96660.34;10394624;28;20789;-24
2022/04/03 05:33:29;;;;;;;1.52;1.00;;;;;;;17.30;50.88;96663.72;10390574;28;20036;-23
2022/04/03 05:38:30;;;;;;;0.90;0.90;;;;;;;17.30;50.97;96660.34;10385959;28;20491;-24
2022/04/03 05:43:30;;;;;;;2.45;1.23;;;;;;;17.30;51.48;96662.88;10394778;28;20033;-23
2022/04/03 05:48:30;;;;;;;3.05;1.40;;;;;;;17.31;51.09;96659.53;10388082;28;20029;-22
2022/04/03 05:53:31;;;;;;;1.23;1.13;;;;;;;17.33;50.57;96673.84;10388920;28;20034;-24
2022/04/03 05:58:31;;;;;;;1.20;1.00;;;;;;;17.36;50.73;96663.78;10391057;28;20059;-24
2022/04/03 06:03:33;;;;;;;1.42;1.23;;;;;;;17.35;50.78;96671.31;10389632;28;20471;-23
2022/04/03 06:08:33;;;;;;;1.38;0.80;;;;;;;17.33;50.99;96676.38;10386779;28;20033;-23
2022/04/03 06:13:34;;;;;;;2.87;1.33;;;;;;;17.33;50.89;96683.13;10384055;28;20034;-24
2022/04/03 06:18:34;;;;;;;2.50;1.13;;;;;;;17.36;50.82;96688.22;10399500;28;20033;-23
2022/04/03 06:23:34;;;;;;;1.20;1.10;;;;;;;17.35;50.57;96691.56;10387231;28;20858;-24
2022/04/03 06:28:35;;;;;;;2.00;1.30;;;;;;;17.28;51.04;96687.31;10391041;28;20538;-24
2022/04/03 06:33:36;;;;;;;1.93;1.50;;;;;;;17.36;50.57;96698.34;10394393;28;20540;-24
2022/04/03 06:38:36;;;;;;;4.40;1.73;;;;;;;17.34;52.08;96690.72;10376362;28;20557;-23
2022/04/03 06:43:36;;;;;;;5.00;1.50;;;;;;;17.32;52.25;96697.47;10380667;28;20045;-24
2022/04/03 06:48:37;;;;;;;2.03;1.45;;;;;;;17.35;51.03;96694.97;10380968;28;20018;-24
2022/04/03 06:53:37;;;;;;;3.63;1.35;;;;;;;17.37;50.97;96705.09;10371792;28;20034;-24
2022/04/03 06:58:38;;;;;;;4.30;1.33;;;;;;;17.37;51.28;96705.09;10376625;28;20037;-24
2022/04/03 07:03:38;;;;;;;3.63;1.70;;;;;;;17.34;50.21;96710.97;10388342;28;20033;-23
2022/04/03 07:08:38;;;;;;;3.43;1.70;;;;;;;17.31;51.29;96717.72;10388622;28;20021;-24
2022/04/03 07:13:39;;;;;;;5.80;1.73;;;;;;;17.24;51.05;96724.41;10390957;28;20044;-23
2022/04/03 07:18:39;;;;;;;5.60;1.80;;;;;;;17.25;50.82;96725.28;10390650;28;20477;-23
2022/04/03 07:23:40;;;;;;;6.73;2.73;;;;;;;16.99;50.55;96726.81;10376291;28;20501;-23
2022/04/03 07:28:40;;;;;;;6.15;1.98;;;;;;;17.14;51.51;96734.50;10374853;28;20026;-23
2022/04/03 07:33:41;;;;;;;6.18;1.80;;;;;;;17.22;51.89;96735.34;10384285;28;20034;-23
2022/04/03 07:38:42;;;;;;;6.15;1.70;;;;;;;17.18;53.69;96733.66;10368771;28;20037;-23
2022/04/03 07:43:42;;;;;;;9.13;1.88;;;;;;;17.12;54.40;96733.63;10379922;28;20076;-23
2022/04/03 07:48:44;;;;;;;5.17;1.60;;;;;;;17.09;53.53;96742.03;10392907;28;20034;-25
2022/04/03 07:53:45;;;;;;;4.38;1.30;;;;;;;17.18;51.72;96749.69;10386816;28;20045;-23
2022/04/03 07:58:45;;;;;;;3.60;1.60;;;;;;;17.22;52.32;96755.59;10379244;28;20399;-25
2022/04/03 08:03:45;;;;;;;3.70;1.65;;;;;;;17.21;52.29;96764.88;10387761;28;20038;-25
2022/04/03 08:08:46;;;;;;;2.10;1.60;;;;;;;17.22;52.55;96765.72;10384197;28;20056;-24
2022/04/03 08:13:47;;;;;;;2.43;1.50;;;;;;;17.26;52.31;96768.28;10384017;28;20489;-24
2022/04/03 08:18:48;;;;;;;6.53;1.45;;;;;;;17.22;51.80;96770.78;10380816;28;20029;-24
2022/04/03 08:23:49;;;;;;;4.10;1.40;;;;;;;17.21;50.91;96764.03;10382086;28;20038;-24
2022/04/03 08:28:49;;;;;;;3.37;1.23;;;;;;;17.24;51.83;96774.19;10391138;28;20045;-25
2022/04/03 08:33:51;;;;;;;7.13;2.80;;;;;;;17.29;51.73;96777.56;10385274;28;20291;-24
2022/04/03 08:38:52;;;;;;;6.22;1.75;;;;;;;17.32;50.84;96780.13;10374791;28;20045;-23
2022/04/03 08:43:53;;;;;;;7.55;2.10;;;;;;;17.26;53.72;96782.63;10390524;28;20029;-23
2022/04/03 08:48:56;;;;;;;4.18;1.65;;;;;;;17.22;53.71;96780.91;10394397;28;20030;-23
2022/04/03 08:53:56;;;;;;;4.20;1.58;;;;;;;17.26;52.08;96787.69;10398253;28;20091;-23
2022/04/03 08:58:57;;;;;;;2.83;1.20;;;;;;;17.27;51.79;96790.22;10393630;28;20464;-23
2022/04/03 09:03:58;;;;;;;8.45;1.55;;;;;;;17.33;51.82;96794.47;10386350;28;20280;-23
2022/04/03 09:08:59;;;;;;;3.45;1.38;;;;;;;17.36;51.42;96799.56;10394335;28;20486;-23
2022/04/03 09:14:10;;;;;;;2.17;1.40;;;;;;;17.40;50.68;96792.00;10390172;28;20034;-23
2022/04/03 09:19:11;;;;;;;4.50;1.27;;;;;;;17.45;50.63;96797.94;10387030;28;20300;-23
2022/04/03 09:24:11;;;;;;;3.13;1.50;;;;;;;17.47;50.93;96792.88;10387651;28;20417;-23
2022/04/03 09:29:15;;;;;;;3.97;2.78;;;;;;;17.44;51.36;96797.94;10390747;28;20413;-24
2022/04/03 09:34:18;;;;;;;3.00;1.83;;;;;;;17.48;50.53;96795.44;10380208;28;20029;-24
2022/04/03 09:39:24;;;;;;;1.98;1.60;;;;;;;17.48;50.70;96792.06;10379058;28;20034;-22
2022/04/03 09:44:29;;;;;;;3.72;1.80;;;;;;;17.43;51.19;96791.19;10383035;28;20030;-23
2022/04/03 09:49:30;;;;;;;4.32;1.80;;;;;;;17.37;52.81;96791.13;10372770;28;20038;-24
2022/04/03 09:54:31;;;;;;;5.07;1.83;;;;;;;17.40;51.79;96796.25;10382782;28;20486;-24
2022/04/03 09:59:31;;;;;;;4.90;2.38;;;;;;;17.42;51.24;96792.03;10377080;28;20060;-24
2022/04/03 10:04:33;;;;;;;6.95;1.83;;;;;;;17.43;51.48;96796.25;10381993;28;20030;-23
2022/04/03 10:09:34;;;;;;;3.00;1.50;;;;;;;17.44;50.72;96792.88;10376901;28;20049;-23
2022/04/03 10:14:35;;;;;;;3.35;1.70;;;;;;;17.21;53.26;96797.78;10393061;28;20033;-23
2022/04/03 10:19:35;;;;;;;12.07;1.85;;;;;;;17.31;52.24;96796.97;10381556;28;20030;-23
2022/04/03 10:24:39;;;;;;;3.50;1.77;;;;;;;17.30;52.24;96800.34;10380584;28;20169;-22
2022/04/03 10:29:42;;;;;;;3.92;1.80;;;;;;;17.31;52.65;96802.06;10373447;28;20640;-22
2022/04/03 10:34:49;;;;;;;8.05;1.60;;;;;;;17.31;51.79;96802.06;10379697;28;20409;-23
2022/04/03 10:39:54;;;;;;;4.72;1.55;;;;;;;17.33;52.17;96802.06;10381009;28;20497;-23
2022/04/03 10:45:18;;;;;;;5.05;2.08;;;;;;;17.26;51.90;96783.44;10381217;28;20032;-23
2022/04/03 10:50:19;;;;;;;5.20;1.50;;;;;;;17.30;53.98;96796.97;10384072;28;20120;-22
2022/04/03 10:55:35;;;;;;;4.35;2.00;;;;;;;17.25;54.79;96801.19;10374102;28;20038;-22
2022/04/03 11:00:40;;;;;;;3.50;2.05;;;;;;;17.27;52.10;96804.56;10389155;28;20430;-23
2022/04/03 11:05:41;;;;;;;6.03;1.42;;;;;;;17.27;51.91;96814.66;10378301;28;20062;-23
2022/04/03 11:10:54;;;;;;;5.47;1.95;;;;;;;17.29;52.24;96813.00;10377448;28;20060;-23
2022/04/03 11:16:00;;;;;;;3.83;2.28;;;;;;;17.13;52.16;96807.00;10381295;28;20040;-24
2022/04/03 11:21:22;;;;;;;7.40;3.72;;;;;;;17.16;51.29;96811.25;10382639;28;20030;-23
2022/04/03 11:26:23;;;;;;;3.75;2.40;;;;;;;17.09;51.70;96817.09;10381868;28;20472;-25
2022/04/03 11:31:24;;;;;;;5.55;2.25;;;;;;;17.05;51.29;96807.78;10384802;28;20123;-24
2022/04/03 11:36:29;;;;;;;2.70;2.13;;;;;;;17.10;51.02;96817.09;10377071;28;20409;-24
2022/04/03 11:41:35;;;;;;;3.67;1.70;;;;;;;17.09;50.23;96810.34;10376617;28;20091;-24
2022/04/03 11:46:44;;;;;;;2.50;2.10;;;;;;;17.10;50.49;96811.19;10376058;28;20038;-24
2022/04/03 11:51:46;;;;;;;8.82;2.22;;;;;;;17.16;52.87;96812.06;10374596;28;20128;-23
2022/04/03 11:56:46;;;;;;;4.93;2.25;;;;;;;17.16;53.26;96806.19;10380528;28;20053;-25
2022/04/03 12:01:50;;;;;;;6.47;1.50;;;;;;;17.27;52.78;96814.66;10379958;28;20104;-24
2022/04/03 12:06:58;;;;;;;3.30;2.00;;;;;;;17.27;52.28;96809.63;10375172;28;20032;-23
2022/04/03 12:12:04;;;;;;;3.08;1.60;;;;;;;17.28;52.33;96809.63;10385472;28;20042;-26
2022/04/03 12:17:06;;;;;;;3.70;1.77;;;;;;;17.27;52.74;96817.19;10395330;28;20040;-22
2022/04/03 12:22:10;;;;;;;3.78;1.90;;;;;;;17.26;53.72;96818.03;10383114;28;20057;-25
2022/04/03 12:27:14;;;;;;;5.68;2.00;;;;;;;17.32;52.51;96815.56;10382841;28;20383;-24
2022/04/03 12:32:28;;;;;;;3.08;1.33;;;;;;;17.32;52.11;96813.03;10395366;28;20053;-24
2022/04/03 12:37:33;;;;;;;7.13;2.00;;;;;;;17.29;53.30;96806.25;10384631;28;20409;-23
2022/04/03 12:42:35;;;;;;;6.55;1.88;;;;;;;17.28;53.87;96812.16;10393009;28;20236;-23
2022/04/03 12:47:37;;;;;;;5.30;1.95;;;;;;;17.28;53.50;96809.63;10391194;28;20028;-23
2022/04/03 12:52:53;;;;;;;4.32;1.73;;;;;;;17.27;52.90;96809.63;10384574;28;20188;-23
2022/04/03 13:03:32;;;;;;;4.35;1.80;;;;;;;17.20;55.07;96808.75;10385140;28;20073;-23
2022/04/03 13:08:39;;;;;;;4.00;2.10;;;;;;;17.21;52.97;96810.44;10387407;28;20389;-23
2022/04/03 13:13:40;;;;;;;3.03;1.92;;;;;;;17.24;53.00;96810.44;10389716;28;20033;-23
2022/04/03 13:18:40;;;;;;;3.65;2.55;;;;;;;17.23;53.21;96805.38;10390783;28;20512;-24
2022/04/03 13:23:41;;;;;;;3.42;2.00;;;;;;;17.24;53.46;96807.06;10379021;28;20045;-25
2022/04/03 13:28:41;;;;;;;5.63;3.10;;;;;;;17.25;53.17;96808.75;10374774;28;20092;-23
2022/04/03 13:33:41;;;;;;;5.07;2.40;;;;;;;17.25;53.19;96801.19;10378570;28;20034;-25
2022/04/03 13:38:42;;;;;;;3.03;2.03;;;;;;;17.28;52.73;96801.19;10378146;28;20061;-24
2022/04/03 13:43:42;;;;;;;4.53;2.67;;;;;;;17.28;52.50;96796.13;10386512;28;20025;-23
2022/04/03 13:48:44;;;;;;;8.02;2.70;;;;;;;17.27;52.32;96794.44;10381564;28;20057;-23
2022/04/03 13:53:46;;;;;;;5.60;2.50;;;;;;;17.26;53.28;96793.56;10376450;28;20136;-25
2022/04/03 13:58:46;;;;;;;15.10;3.10;;;;;;;17.26;53.29;96795.28;10382328;28;20372;-25
2022/04/03 14:03:47;;;;;;;9.55;5.78;;;;;;;17.20;55.86;96787.63;10381736;28;20104;-24
2022/04/03 14:08:48;;;;;;;10.52;4.22;;;;;;;17.19;55.75;96786.81;10387834;28;20026;-23
2022/04/03 14:13:49;;;;;;;8.13;3.77;;;;;;;17.21;54.16;96784.25;10385289;28;20088;-23
2022/04/03 14:18:49;;;;;;;12.23;4.85;;;;;;;17.22;53.25;96783.41;10381964;28;20528;-24
2022/04/03 14:23:49;;;;;;;7.20;3.70;;;;;;;17.24;53.92;96792.72;10379123;28;20041;-23
2022/04/03 14:28:50;;;;;;;10.97;4.27;;;;;;;17.23;54.80;96790.22;10377956;28;20038;-24
2022/04/03 14:33:52;;;;;;;8.85;3.08;;;;;;;17.25;53.29;96791.06;10383058;28;20529;-24
2022/04/03 14:38:53;;;;;;;10.02;3.88;;;;;;;17.26;52.87;96793.56;10376770;28;20092;-23
2022/04/03 14:43:55;;;;;;;5.38;3.75;;;;;;;17.23;52.69;96797.78;10376539;28;20128;-23
2022/04/03 14:48:55;;;;;;;5.28;3.45;;;;;;;17.24;53.16;96789.38;10374029;28;20069;-23
2022/04/03 14:53:56;;;;;;;7.70;3.03;;;;;;;17.23;52.64;96801.16;10372810;28;20116;-23
2022/04/03 14:58:57;;;;;;;9.68;3.72;;;;;;;17.20;51.19;96807.88;10383374;28;20029;-23
2022/04/03 15:03:57;;;;;;;5.82;3.40;;;;;;;17.24;54.70;96802.00;10385555;28;20075;-25
2022/04/03 15:08:58;;;;;;;7.73;3.90;;;;;;;17.25;55.50;96806.22;10388345;28;20492;-24
2022/04/03 15:13:58;;;;;;;8.57;3.80;;;;;;;17.28;53.64;96806.25;10384432;28;20053;-24
2022/04/03 15:18:58;;;;;;;9.63;3.73;;;;;;;17.24;52.01;96807.06;10384575;28;20861;-23
2022/04/03 15:24:00;;;;;;;5.73;3.67;;;;;;;17.25;53.07;96813.81;10382450;28;20345;-24
2022/04/03 15:29:00;;;;;;;7.40;3.35;;;;;;;17.25;53.57;96817.19;10379803;28;20761;-24
2022/04/03 15:34:01;;;;;;;9.60;2.97;;;;;;;17.25;52.39;96819.72;10378106;28;20041;-23
2022/04/03 15:39:05;;;;;;;7.07;2.78;;;;;;;17.28;52.56;96821.44;10376967;28;20038;-24
2022/04/03 15:44:06;;;;;;;11.60;2.70;;;;;;;17.09;53.33;96824.69;10384819;28;20531;-24
2022/04/03 15:49:06;;;;;;;6.88;3.00;;;;;;;17.31;51.79;96821.47;10385982;28;20112;-24
2022/04/03 15:54:07;;;;;;;7.93;2.97;;;;;;;17.36;51.81;96823.22;10378376;28;20091;-23
2022/04/03 15:59:07;;;;;;;10.67;3.30;;;;;;;17.30;53.86;96819.75;10385427;28;20792;-23
2022/04/03 16:04:08;;;;;;;6.77;2.60;;;;;;;17.38;52.72;96819.00;10380491;28;20033;-25
2022/04/03 16:09:08;;;;;;;8.32;3.50;;;;;;;17.40;54.38;96819.03;10383578;28;20021;-23
2022/04/03 16:14:09;;;;;;;8.90;3.22;;;;;;;17.39;53.71;96825.75;10383007;28;20041;-24
2022/04/03 16:19:09;;;;;;;11.25;3.50;;;;;;;17.35;52.68;96831.63;10385607;28;20061;-23
2022/04/03 16:24:10;;;;;;;8.63;2.63;;;;;;;17.33;52.08;96840.03;10358543;28;20125;-23
2022/04/03 16:29:11;;;;;;;8.48;2.55;;;;;;;17.33;52.58;96840.03;10381897;28;20068;-24
2022/04/03 16:34:11;;;;;;;7.40;2.60;;;;;;;17.35;52.29;96845.94;10383712;28;20065;-24
2022/04/03 16:39:13;;;;;;;5.53;2.90;;;;;;;17.35;52.38;96853.53;10376630;28;20037;-23
2022/04/03 16:44:13;;;;;;;6.03;3.03;;;;;;;17.34;51.83;96851.84;10385188;28;20036;-23
2022/04/03 16:49:13;;;;;;;6.22;2.75;;;;;;;17.34;52.94;96851.84;10374688;28;20038;-24
2022/04/03 16:54:15;;;;;;;7.70;2.60;;;;;;;17.31;52.47;96846.75;10370874;28;20414;-24
2022/04/03 16:59:16;;;;;;;6.53;3.30;;;;;;;17.37;52.89;96862.00;10383600;28;20042;-23
2022/04/03 17:04:16;;;;;;;6.35;3.33;;;;;;;17.39;52.24;96861.19;10383794;28;20104;-23
2022/04/03 17:09:18;;;;;;;5.93;3.53;;;;;;;17.32;53.53;96851.81;10383179;28;20026;-23
2022/04/03 17:14:18;;;;;;;9.85;3.70;;;;;;;17.38;54.17;96861.16;10391894;28;20037;-23
2022/04/03 17:19:19;;;;;;;6.43;3.50;;;;;;;17.33;55.08;96866.16;10387819;28;20449;-23
2022/04/03 17:24:19;;;;;;;7.57;3.70;;;;;;;17.38;53.23;96869.63;10364066;28;20056;-24
2022/04/03 17:29:19;;;;;;;10.43;3.17;;;;;;;17.40;52.79;96872.16;10390531;28;20029;-24
2022/04/03 17:34:20;;;;;;;10.70;3.47;;;;;;;17.38;53.30;96868.75;10388620;28;20115;-23
2022/04/03 17:39:20;;;;;;;10.80;3.23;;;;;;;17.43;52.71;96872.16;10385267;28;20622;-24
2022/04/03 17:44:22;;;;;;;9.47;3.60;;;;;;;17.45;53.01;96883.16;10389573;28;20297;-23
2022/04/03 17:49:24;;;;;;;11.18;3.40;;;;;;;17.42;52.95;96886.50;10380531;28;20036;-24
2022/04/03 17:54:25;;;;;;;14.00;4.60;;;;;;;17.42;53.72;96889.03;10382423;28;20041;-23
2022/04/03 17:59:25;;;;;;;6.75;3.55;;;;;;;17.38;52.93;96886.47;10392792;28;20041;-24
2022/04/03 18:04:26;;;;;;;8.95;2.58;;;;;;;17.35;53.31;96894.00;10381236;28;20030;-23
2022/04/03 18:09:27;;;;;;;12.63;4.17;;;;;;;17.34;55.93;96899.91;10389285;28;20042;-24
2022/04/03 18:14:27;;;;;;;12.38;4.53;;;;;;;17.25;56.98;96899.84;10379956;28;20288;-26
2022/04/03 18:19:27;;;;;;;10.53;4.00;;;;;;;17.27;54.92;96905.75;10376461;28;20033;-24
2022/04/03 18:24:28;;;;;;;7.38;3.60;;;;;;;17.27;53.51;96905.75;10381765;28;20025;-25
2022/04/03 18:29:30;;;;;;;11.38;3.95;;;;;;;17.30;52.35;96910.84;10376542;28;20054;-24
2022/04/03 18:34:30;;;;;;;8.93;3.45;;;;;;;17.31;53.03;96913.38;10379669;28;20033;-24
2022/04/03 18:39:31;;;;;;;5.57;3.17;;;;;;;17.30;53.05;96916.75;10377375;28;20474;-24
2022/04/03 18:44:31;;;;;;;8.63;3.43;;;;;;;17.27;53.21;96916.75;10380437;28;20033;-24
2022/04/03 18:49:35;;;;;;;7.70;3.25;;;;;;;17.27;53.32;96915.88;10377737;28;20292;-24
2022/04/03 18:54:37;;;;;;;4.97;3.25;;;;;;;17.27;52.02;96928.53;10382281;28;20067;-24
2022/04/03 18:59:37;;;;;;;6.00;3.42;;;;;;;17.28;52.36;96933.63;10378716;28;20399;-24
2022/04/03 19:04:38;;;;;;;6.00;3.30;;;;;;;17.28;52.93;96943.75;10372219;28;20030;-22
2022/04/03 19:09:38;;;;;;;6.63;3.17;;;;;;;17.23;52.29;96935.25;10360699;28;20121;-21
2022/04/03 19:14:39;;;;;;;7.82;3.00;;;;;;;17.24;55.51;96948.75;10374750;28;20478;-20
2022/04/03 19:19:39;;;;;;;5.63;3.30;;;;;;;17.22;55.09;96942.81;10375511;28;20478;-22
2022/04/03 19:24:40;;;;;;;5.10;2.93;;;;;;;17.21;52.80;96948.72;10379133;28;20482;-22
2022/04/03 19:29:41;;;;;;;4.85;2.85;;;;;;;17.25;53.19;96958.88;10380014;28;20038;-22
2022/04/03 19:34:42;;;;;;;7.20;2.70;;;;;;;17.28;53.85;96950.47;10377535;28;20486;-21
2022/04/03 19:39:43;;;;;;;5.88;2.60;;;;;;;17.27;52.64;96948.78;10376060;28;20037;-21
2022/04/03 19:44:43;;;;;;;4.33;2.80;;;;;;;17.16;52.05;96948.69;10379047;28;20045;-21
2022/04/03 19:49:43;;;;;;;5.07;2.70;;;;;;;17.26;52.07;96954.69;10380286;28;20513;-21
2022/04/03 19:54:44;;;;;;;4.03;2.65;;;;;;;17.28;51.84;96953.88;10374357;28;20497;-23
2022/04/03 19:59:45;;;;;;;6.03;2.67;;;;;;;17.31;51.95;96958.94;10372144;28;20092;-23
2022/04/03 20:04:46;;;;;;;2.95;2.40;;;;;;;17.34;51.89;96964.00;10377264;28;20288;-23
2022/04/03 20:09:46;;;;;;;3.97;2.75;;;;;;;17.26;51.90;96949.63;10369744;28;20045;-24
2022/04/03 20:14:47;;;;;;;3.37;2.30;;;;;;;17.36;52.43;96964.06;10374180;28;20041;-24
2022/04/03 20:19:47;;;;;;;4.83;3.10;;;;;;;17.33;54.61;96969.09;10376850;28;20042;-25
2022/04/03 20:24:48;;;;;;;3.80;2.58;;;;;;;17.32;53.04;96972.44;10369772;28;20121;-24
2022/04/03 20:29:48;;;;;;;3.23;2.20;;;;;;;17.35;52.33;96964.88;10385451;28;20046;-22
2022/04/03 20:34:49;;;;;;;3.65;2.35;;;;;;;17.32;51.95;96967.38;10381605;28;20041;-23
2022/04/03 20:39:49;;;;;;;3.15;2.45;;;;;;;17.29;51.71;96967.34;10393097;28;20092;-23
2022/04/03 20:44:50;;;;;;;5.03;2.50;;;;;;;17.30;51.66;96967.38;10394228;28;20165;-23
2022/04/03 20:49:51;;;;;;;2.45;2.10;;;;;;;17.29;51.95;96967.34;10389269;28;20076;-24
2022/04/03 20:54:51;;;;;;;4.35;2.20;;;;;;;17.29;51.62;96960.63;10387677;28;20041;-23
2022/04/03 20:59:52;;;;;;;3.23;1.80;;;;;;;17.29;52.42;96958.09;10387677;28;20037;-24
2022/04/03 21:04:52;;;;;;;4.35;2.00;;;;;;;17.26;52.00;96964.81;10394769;28;20045;-23
2022/04/03 21:09:53;;;;;;;2.23;1.93;;;;;;;17.26;51.72;96965.63;10386131;28;20038;-24
2022/04/03 21:14:55;;;;;;;2.90;2.20;;;;;;;17.25;51.79;96968.16;10388029;28;20041;-23
2022/04/03 21:19:56;;;;;;;3.20;2.30;;;;;;;17.24;52.07;96966.47;10390916;28;20044;-23
2022/04/03 21:24:56;;;;;;;4.60;1.80;;;;;;;17.29;51.87;96965.69;10387209;28;20051;-24
2022/04/03 21:29:57;;;;;;;3.55;2.20;;;;;;;17.29;52.01;96964.81;10392574;28;20025;-22
2022/04/03 21:35:01;;;;;;;6.93;2.60;;;;;;;17.25;51.59;96958.03;10392202;28;20382;-23
2022/04/03 21:40:04;;;;;;;2.88;2.00;;;;;;;17.22;51.95;96963.91;10385040;28;20547;-23
2022/04/03 21:45:05;;;;;;;3.63;2.00;;;;;;;17.20;52.04;96965.59;10389231;28;20509;-23
2022/04/03 21:50:06;;;;;;;3.25;1.65;;;;;;;17.20;52.41;96963.06;10390637;28;20061;-23
2022/04/03 21:55:07;;;;;;;3.40;2.15;;;;;;;17.22;51.86;96963.06;10389230;28;20033;-24
2022/04/03 22:00:14;;;;;;;4.50;1.88;;;;;;;17.18;52.45;96961.34;10385663;28;20597;-24
2022/04/03 22:05:15;;;;;;;3.42;2.15;;;;;;;17.18;51.63;96964.75;10372518;28;20469;-23
2022/04/03 22:10:15;;;;;;;3.63;2.43;;;;;;;17.18;52.12;96961.34;10389839;28;20038;-25
2022/04/03 22:15:16;;;;;;;3.17;1.98;;;;;;;17.19;52.26;96963.91;10382693;28;20069;-24
2022/04/03 22:20:17;;;;;;;2.20;2.00;;;;;;;17.17;52.47;96954.59;10378266;28;20087;-25
2022/04/03 22:25:17;;;;;;;2.95;1.73;;;;;;;17.16;52.12;96963.03;10390199;28;20030;-23
2022/04/03 22:30:20;;;;;;;2.57;1.90;;;;;;;17.19;53.42;96965.56;10385167;28;20038;-24
2022/04/03 22:35:20;;;;;;;3.22;1.90;;;;;;;17.19;53.02;96968.09;10384187;28;20065;-23
2022/04/03 22:40:21;;;;;;;2.30;1.67;;;;;;;17.12;52.40;96966.34;10382802;28;20037;-23
2022/04/03 22:45:21;;;;;;;3.00;1.97;;;;;;;17.13;53.26;96968.03;10386691;28;20401;-24
2022/04/03 22:50:22;;;;;;;2.90;1.63;;;;;;;17.17;52.32;96974.84;10372767;28;20295;-24
2022/04/03 22:55:22;;;;;;;3.03;2.03;;;;;;;17.17;52.98;96977.38;10384510;28;20091;-23
2022/04/03 23:00:23;;;;;;;3.13;2.10;;;;;;;17.12;53.07;96973.94;10383146;28;20041;-23
2022/04/03 23:05:23;;;;;;;2.60;1.77;;;;;;;17.13;53.07;96983.22;10386334;28;20037;-24
2022/04/03 23:10:24;;;;;;;3.45;2.05;;;;;;;17.14;52.22;96972.28;10376771;28;20040;-24
2022/04/03 23:15:27;;;;;;;3.05;1.95;;;;;;;17.10;52.06;96958.78;10389941;28;20025;-23
2022/04/03 23:20:27;;;;;;;3.03;1.60;;;;;;;17.17;52.12;96959.66;10387373;28;20072;-24
2022/04/03 23:25:28;;;;;;;4.85;2.00;;;;;;;17.17;52.05;96959.66;10388456;28;20518;-23